Time;durP1;ratioP1;P1;durP2;ratioP2;P2;SDS_P1;SDS_P2;PMS_P1;PMS_P2;Temp;Humidity;BMP_temperature;BMP_pressure;BME280_temperature;BME280_humidity;BME280_pressure;Samples;Min_cycle;Max_cycle;Signal;HPM_P1;HPM_P2
2022/02/23 00:00:06;;;;;;;16.10;4.80;;;6.10;99.90;;;;;;4966126;28;20058;-69
2022/02/23 00:02:34;;;;;;;21.40;5.88;;;6.10;99.90;;;;;;4969462;28;20049;-71
2022/02/23 00:05:01;;;;;;;18.77;6.60;;;6.10;99.90;;;;;;4973042;28;20494;-69
2022/02/23 00:07:28;;;;;;;17.05;5.18;;;6.00;99.90;;;;;;4974160;28;20413;-69
2022/02/23 00:09:54;;;;;;;18.48;5.35;;;6.00;99.90;;;;;;4960371;28;20051;-69
2022/02/23 00:12:22;;;;;;;16.33;4.90;;;6.00;99.90;;;;;;4967248;28;20097;-69
2022/02/23 00:14:50;;;;;;;18.30;4.78;;;6.00;99.90;;;;;;4956364;28;20051;-69
2022/02/23 00:17:20;;;;;;;16.27;5.55;;;6.00;99.90;;;;;;4955262;28;20403;-69
2022/02/23 00:19:47;;;;;;;;;;;6.00;99.90;;;;;;4958060;28;20134;-69
2022/02/23 00:22:14;;;;;;;17.85;6.05;;;6.00;99.90;;;;;;4964167;28;19962;-69
2022/02/23 00:24:43;;;;;;;18.88;4.57;;;6.00;99.90;;;;;;4955311;28;20054;-68
2022/02/23 00:27:10;;;;;;;15.52;4.40;;;6.00;99.90;;;;;;4954078;28;20050;-69
2022/02/23 00:29:37;;;;;;;20.00;5.75;;;6.00;99.90;;;;;;4965626;28;20446;-69
2022/02/23 00:32:04;;;;;;;23.80;5.78;;;6.00;99.90;;;;;;4972250;28;20051;-69
2022/02/23 00:34:31;;;;;;;19.73;5.28;;;6.00;99.90;;;;;;4968047;28;20508;-69
2022/02/23 00:36:58;;;;;;;13.43;5.63;;;6.00;99.90;;;;;;4938444;28;20055;-69
2022/02/23 00:39:25;;;;;;;18.70;5.53;;;6.00;99.90;;;;;;4956072;28;20046;-69
2022/02/23 00:41:52;;;;;;;18.45;5.82;;;6.00;99.90;;;;;;4985102;28;20047;-69
2022/02/23 00:44:19;;;;;;;16.73;5.80;;;6.00;99.90;;;;;;4958244;28;20051;-68
2022/02/23 00:46:48;;;;;;;;;;;6.00;99.90;;;;;;4956208;28;20093;-69
2022/02/23 00:49:15;;;;;;;23.58;6.07;;;6.00;99.90;;;;;;4968038;28;19926;-69
2022/02/23 00:51:42;;;;;;;19.65;5.95;;;5.90;99.90;;;;;;4957023;28;20062;-69
2022/02/23 00:54:09;;;;;;;21.95;4.63;;;6.00;99.90;;;;;;4961174;28;20047;-70
2022/02/23 00:56:38;;;;;;;20.03;5.83;;;6.00;99.90;;;;;;4961536;28;20081;-69
2022/02/23 00:59:05;;;;;;;20.98;5.38;;;5.90;99.90;;;;;;4957600;28;20054;-69
2022/02/23 01:01:34;;;;;;;14.65;4.90;;;5.90;99.90;;;;;;4967804;28;20046;-70
2022/02/23 01:04:01;;;;;;;19.55;5.10;;;5.90;99.90;;;;;;4960989;28;20076;-69
2022/02/23 01:06:28;;;;;;;23.02;4.85;;;5.90;99.90;;;;;;4930226;29;20088;-69
2022/02/23 01:08:55;;;;;;;13.85;4.47;;;5.90;99.90;;;;;;4952214;28;20054;-70
2022/02/23 01:11:22;;;;;;;23.92;6.47;;;5.80;99.90;;;;;;4942735;29;20078;-69
2022/02/23 01:13:49;;;;;;;23.23;5.07;;;5.80;99.90;;;;;;4956440;28;20063;-70
2022/02/23 01:16:17;;;;;;;20.95;4.20;;;5.80;99.90;;;;;;4956100;28;20039;-69
2022/02/23 01:18:46;;;;;;;25.27;5.90;;;5.80;99.90;;;;;;4945883;28;20062;-69
2022/02/23 01:21:13;;;;;;;27.05;6.25;;;5.80;99.90;;;;;;4936846;29;20058;-69
2022/02/23 01:23:40;;;;;;;19.83;5.80;;;5.70;99.90;;;;;;4953807;28;20043;-69
2022/02/23 01:26:07;;;;;;;30.98;7.47;;;5.70;99.90;;;;;;4958551;28;20059;-69
2022/02/23 01:28:34;;;;;;;16.90;4.72;;;5.70;99.90;;;;;;4941444;29;20051;-69
2022/02/23 01:31:01;;;;;;;26.65;5.95;;;5.70;99.90;;;;;;4955098;28;20058;-69
2022/02/23 01:33:28;;;;;;;23.10;6.68;;;5.60;99.90;;;;;;4959300;28;20051;-68
2022/02/23 01:35:55;;;;;;;23.15;5.70;;;5.70;99.90;;;;;;4937372;29;20055;-69
2022/02/23 01:38:22;;;;;;;20.77;6.75;;;5.60;99.90;;;;;;4984506;28;20055;-69
2022/02/23 01:40:49;;;;;;;22.17;5.30;;;5.70;99.90;;;;;;4955246;28;20084;-70
2022/02/23 01:43:16;;;;;;;24.15;7.07;;;5.60;99.90;;;;;;4962526;28;20050;-69
2022/02/23 01:45:42;;;;;;;18.17;5.15;;;5.60;99.90;;;;;;4960422;28;20947;-68
2022/02/23 01:48:12;;;;;;;24.20;5.55;;;5.60;99.90;;;;;;4983273;28;20047;-69
2022/02/23 01:50:41;;;;;;;15.18;4.13;;;5.60;99.90;;;;;;4967722;28;20454;-69
2022/02/23 01:53:08;;;;;;;22.35;7.20;;;5.60;99.90;;;;;;4942177;29;20062;-68
2022/02/23 01:55:38;;;;;;;22.15;6.03;;;5.50;99.90;;;;;;4962775;28;20054;-69
2022/02/23 01:58:09;;;;;;;23.75;5.43;;;5.50;99.90;;;;;;4948650;28;20065;-69
2022/02/23 02:00:36;;;;;;;22.30;5.38;;;5.50;99.90;;;;;;4967826;28;20051;-69
2022/02/23 02:03:03;;;;;;;22.92;5.18;;;5.50;99.90;;;;;;4965661;28;20051;-69
2022/02/23 02:05:30;;;;;;;28.83;6.07;;;5.50;99.90;;;;;;4938809;28;20392;-69
2022/02/23 02:07:57;;;;;;;20.85;5.85;;;5.40;99.90;;;;;;4921893;29;20058;-69
2022/02/23 02:10:24;;;;;;;25.13;5.65;;;5.40;99.90;;;;;;4956043;28;20490;-72
2022/02/23 02:12:51;;;;;;;17.13;5.20;;;5.40;99.90;;;;;;4944184;28;20054;-69
2022/02/23 02:15:18;;;;;;;16.88;5.15;;;5.40;99.90;;;;;;4954229;28;20066;-69
2022/02/23 02:17:48;;;;;;;;;;;5.40;99.90;;;;;;4978881;28;20051;-68
2022/02/23 02:20:14;;;;;;;18.55;6.30;;;5.40;99.90;;;;;;4953825;28;20601;-70
2022/02/23 02:22:41;;;;;;;22.33;5.40;;;5.40;99.90;;;;;;4955238;28;20051;-69
2022/02/23 02:25:08;;;;;;;13.65;4.32;;;5.40;99.90;;;;;;4945548;28;20055;-69
2022/02/23 02:27:35;;;;;;;22.00;7.38;;;5.30;99.90;;;;;;4944130;28;20415;-69
2022/02/23 02:30:03;;;;;;;35.50;7.60;;;5.30;99.90;;;;;;4968536;28;20043;-69
2022/02/23 02:32:32;;;;;;;23.20;5.43;;;5.30;99.90;;;;;;4955123;28;20058;-69
2022/02/23 02:34:59;;;;;;;15.98;5.93;;;5.30;99.90;;;;;;4931732;28;20109;-69
2022/02/23 02:37:26;;;;;;;19.10;5.43;;;5.30;99.90;;;;;;4967301;28;20119;-71
2022/02/23 02:39:53;;;;;;;17.88;5.38;;;5.30;99.90;;;;;;4962813;28;20047;-69
2022/02/23 02:42:22;;;;;;;25.90;6.45;;;5.20;99.90;;;;;;4987007;28;20047;-69
2022/02/23 02:44:49;;;;;;;16.58;4.28;;;5.20;99.90;;;;;;4986672;28;20058;-69
2022/02/23 02:47:16;;;;;;;16.52;4.43;;;5.20;99.90;;;;;;4966526;28;20054;-69
2022/02/23 02:49:43;;;;;;;17.70;5.40;;;5.10;99.90;;;;;;4962744;28;20039;-69
2022/02/23 02:52:10;;;;;;;18.33;5.05;;;5.10;99.90;;;;;;4957257;28;20059;-69
2022/02/23 02:54:38;;;;;;;15.48;4.50;;;5.10;99.90;;;;;;4962906;28;20049;-70
2022/02/23 02:57:05;;;;;;;20.98;4.40;;;5.10;99.90;;;;;;4964263;28;20048;-69
2022/02/23 02:59:32;;;;;;;18.65;6.38;;;5.10;99.90;;;;;;4967949;28;20043;-69
2022/02/23 03:01:59;;;;;;;17.63;5.38;;;5.10;99.90;;;;;;4968803;28;20047;-69
2022/02/23 03:04:26;;;;;;;18.98;4.50;;;5.00;99.90;;;;;;4967118;28;20433;-70
2022/02/23 03:06:53;;;;;;;20.17;6.30;;;5.00;99.90;;;;;;4969022;28;20051;-69
2022/02/23 03:09:20;;;;;;;17.52;4.65;;;5.00;99.90;;;;;;4959879;28;20055;-69
2022/02/23 03:11:47;;;;;;;18.48;5.35;;;4.90;99.90;;;;;;4970880;28;20081;-69
2022/02/23 03:14:15;;;;;;;24.80;6.07;;;4.90;99.90;;;;;;4949397;28;20055;-69
2022/02/23 03:16:42;;;;;;;19.08;5.50;;;4.90;99.90;;;;;;4962777;28;20060;-69
2022/02/23 03:19:09;;;;;;;17.35;4.53;;;4.90;99.90;;;;;;4948663;28;20054;-69
2022/02/23 03:21:38;;;;;;;19.35;4.40;;;4.80;99.90;;;;;;4967520;28;20057;-69
2022/02/23 03:24:05;;;;;;;16.95;5.03;;;4.80;99.90;;;;;;4969727;28;20047;-69
2022/02/23 03:26:32;;;;;;;15.55;5.15;;;4.80;99.90;;;;;;4968367;28;20073;-69
2022/02/23 03:29:00;;;;;;;16.75;4.78;;;4.70;99.90;;;;;;4948084;28;20415;-70
2022/02/23 03:31:27;;;;;;;19.17;5.22;;;4.70;99.90;;;;;;4959459;28;20495;-69
2022/02/23 03:33:55;;;;;;;15.13;5.13;;;4.70;99.90;;;;;;4957408;28;20059;-69
2022/02/23 03:36:23;;;;;;;18.52;4.85;;;4.60;99.90;;;;;;4985497;28;20047;-69
2022/02/23 03:38:50;;;;;;;16.65;5.68;;;4.60;99.90;;;;;;4956197;28;20047;-69
2022/02/23 03:41:17;;;;;;;12.68;3.90;;;4.50;99.90;;;;;;4955580;28;20058;-69
2022/02/23 03:43:44;;;;;;;13.38;4.43;;;4.50;99.90;;;;;;4955905;28;20039;-69
2022/02/23 03:46:11;;;;;;;22.35;5.07;;;4.50;99.90;;;;;;4961797;28;20081;-69
2022/02/23 03:48:38;;;;;;;19.52;4.47;;;4.50;99.90;;;;;;4957284;28;20059;-69
2022/02/23 03:51:05;;;;;;;17.85;3.50;;;4.50;99.90;;;;;;4947947;28;20126;-69
2022/02/23 03:53:32;;;;;;;20.45;6.75;;;4.50;99.90;;;;;;4962140;28;20097;-69
2022/02/23 03:55:59;;;;;;;18.05;4.63;;;4.50;99.90;;;;;;4956355;28;20047;-69
2022/02/23 03:58:26;;;;;;;16.20;4.60;;;4.50;99.90;;;;;;4956824;28;20050;-70
2022/02/23 04:00:53;;;;;;;17.33;4.85;;;4.40;99.90;;;;;;4970383;28;20047;-69
2022/02/23 04:03:23;;;;;;;25.17;5.25;;;4.40;99.90;;;;;;4965973;28;20410;-69
2022/02/23 04:05:53;;;;;;;14.30;4.40;;;4.30;99.90;;;;;;4939556;28;20526;-69
2022/02/23 04:08:21;;;;;;;22.92;5.60;;;4.30;99.90;;;;;;4954400;28;20059;-69
2022/02/23 04:10:48;;;;;;;18.25;4.80;;;4.30;99.90;;;;;;4970009;28;20066;-69
2022/02/23 04:13:15;;;;;;;16.52;6.20;;;4.30;99.90;;;;;;4952673;28;20062;-68
2022/02/23 04:15:44;;;;;;;20.47;5.20;;;4.30;99.90;;;;;;4971192;28;20146;-68
2022/02/23 04:18:11;;;;;;;19.20;4.97;;;4.30;99.90;;;;;;4961851;28;20110;-68
2022/02/23 04:20:38;;;;;;;17.63;3.72;;;4.40;99.90;;;;;;4965453;28;20058;-68
2022/02/23 04:23:05;;;;;;;11.60;3.75;;;4.30;99.90;;;;;;4961939;28;20118;-69
2022/02/23 04:25:32;;;;;;;13.50;5.03;;;4.30;99.90;;;;;;4986383;28;20044;-69
2022/02/23 04:28:01;;;;;;;12.85;3.55;;;4.30;99.90;;;;;;4955418;28;20583;-68
2022/02/23 04:30:28;;;;;;;21.10;5.35;;;4.20;99.90;;;;;;4985993;28;20047;-69
2022/02/23 04:32:55;;;;;;;17.08;4.25;;;4.20;99.90;;;;;;4985462;28;20490;-69
2022/02/23 04:35:22;;;;;;;13.75;4.00;;;4.20;99.90;;;;;;4942814;28;20406;-69
2022/02/23 04:37:50;;;;;;;16.85;5.32;;;4.10;99.90;;;;;;4968449;28;20043;-69
2022/02/23 04:40:18;;;;;;;14.45;4.38;;;4.10;99.90;;;;;;4961065;28;20065;-69
2022/02/23 04:42:46;;;;;;;15.10;5.03;;;4.10;99.90;;;;;;4955106;28;20054;-70
2022/02/23 04:45:14;;;;;;;12.68;4.45;;;4.00;99.90;;;;;;4968649;28;20047;-68
2022/02/23 04:47:42;;;;;;;14.20;4.10;;;4.00;99.90;;;;;;4970979;28;20047;-69
2022/02/23 04:50:09;;;;;;;16.90;3.67;;;4.00;99.90;;;;;;4964350;28;20062;-70
2022/02/23 04:52:36;;;;;;;13.10;3.40;;;4.00;99.90;;;;;;4943491;28;20522;-68
2022/02/23 04:55:03;;;;;;;12.65;4.45;;;3.90;99.90;;;;;;4958363;28;20505;-69
2022/02/23 04:57:30;;;;;;;14.65;4.88;;;3.90;99.90;;;;;;4970119;28;20439;-69
2022/02/23 04:59:57;;;;;;;11.73;3.55;;;3.90;99.90;;;;;;4961828;28;20113;-68
2022/02/23 05:02:24;;;;;;;11.82;3.95;;;3.80;99.90;;;;;;4972347;28;20750;-68
2022/02/23 05:04:55;;;;;;;15.82;3.97;;;3.80;99.90;;;;;;4965627;28;20051;-69
2022/02/23 05:07:24;;;;;;;12.77;4.57;;;3.70;99.90;;;;;;4960343;28;20051;-68
2022/02/23 05:09:51;;;;;;;10.15;3.13;;;3.70;99.90;;;;;;4954627;28;20069;-69
2022/02/23 05:12:18;;;;;;;8.70;3.40;;;3.70;99.90;;;;;;4969125;28;20434;-69
2022/02/23 05:14:45;;;;;;;8.40;3.20;;;3.70;99.90;;;;;;4951619;28;20106;-69
2022/02/23 05:17:14;;;;;;;8.45;2.75;;;3.60;99.90;;;;;;4950989;28;20050;-69
2022/02/23 05:19:41;;;;;;;10.20;2.97;;;3.60;99.90;;;;;;4954067;28;20047;-70
2022/02/23 05:22:09;;;;;;;12.95;4.32;;;3.50;99.90;;;;;;4968091;28;20053;-69
2022/02/23 05:24:36;;;;;;;10.68;3.70;;;3.50;99.90;;;;;;4964049;28;20047;-68
2022/02/23 05:27:03;;;;;;;14.63;4.03;;;3.50;99.90;;;;;;4968490;28;20043;-69
2022/02/23 05:29:33;;;;;;;17.85;4.95;;;3.40;99.90;;;;;;4960436;28;20054;-69
2022/02/23 05:32:01;;;;;;;18.10;4.18;;;3.40;99.90;;;;;;4956235;28;20129;-69
2022/02/23 05:34:28;;;;;;;13.40;4.22;;;3.40;99.90;;;;;;4927246;28;1165346;-68
2022/02/23 05:36:55;;;;;;;15.18;4.03;;;3.50;99.90;;;;;;4961665;28;20398;-68
2022/02/23 05:39:22;;;;;;;11.05;3.45;;;3.40;99.90;;;;;;4972062;28;20043;-69
2022/02/23 05:41:49;;;;;;;13.80;4.30;;;3.40;99.90;;;;;;4972492;28;20050;-69
2022/02/23 05:44:17;;;;;;;16.20;3.75;;;3.40;99.90;;;;;;4939793;28;20106;-68
2022/02/23 05:46:44;;;;;;;17.52;5.28;;;3.40;99.90;;;;;;4968549;28;20486;-68
2022/02/23 05:49:11;;;;;;;12.07;5.13;;;3.40;99.90;;;;;;4967432;28;20050;-68
2022/02/23 05:51:38;;;;;;;19.23;4.28;;;3.40;99.90;;;;;;4967456;28;20050;-69
2022/02/23 05:54:08;;;;;;;14.05;3.88;;;3.40;99.90;;;;;;4983916;28;20051;-69
2022/02/23 05:56:35;;;;;;;;;;;3.40;99.90;;;;;;4969068;28;20063;-69
2022/02/23 05:59:02;;;;;;;12.95;2.63;;;3.40;99.90;;;;;;4961867;28;19926;-69
2022/02/23 06:01:30;;;;;;;12.75;3.65;;;3.30;99.90;;;;;;4967735;28;20042;-69
2022/02/23 06:03:58;;;;;;;11.73;3.15;;;3.30;99.90;;;;;;4953980;28;20054;-69
2022/02/23 06:06:24;;;;;;;17.42;4.85;;;3.30;99.90;;;;;;4960875;28;20055;-69
2022/02/23 06:08:51;;;;;;;14.38;3.65;;;3.30;99.90;;;;;;4964258;28;20058;-69
2022/02/23 06:11:24;;;;;;;11.55;3.45;;;3.20;99.90;;;;;;4959411;28;20051;-68
2022/02/23 06:13:51;;;;;;;12.02;3.47;;;3.20;99.90;;;;;;4949351;28;20372;-69
2022/02/23 06:16:19;;;;;;;10.23;3.25;;;3.10;99.90;;;;;;4956704;28;20054;-68
2022/02/23 06:18:47;;;;;;;9.85;3.92;;;3.10;99.90;;;;;;4965506;28;20399;-68
2022/02/23 06:21:14;;;;;;;9.43;3.55;;;3.10;99.90;;;;;;4957379;28;20070;-68
2022/02/23 06:23:43;;;;;;;10.70;4.72;;;3.10;99.90;;;;;;4942754;28;20486;-69
2022/02/23 06:26:10;;;;;;;13.05;4.43;;;3.00;99.90;;;;;;4938383;28;20435;-69
2022/02/23 06:28:38;;;;;;;11.40;3.50;;;3.00;99.90;;;;;;4953163;28;20105;-68
2022/02/23 06:31:06;;;;;;;13.48;4.10;;;2.90;99.90;;;;;;4963975;28;20074;-68
2022/02/23 06:33:35;;;;;;;11.45;3.42;;;2.90;99.90;;;;;;4935644;29;20061;-69
2022/02/23 06:36:02;;;;;;;14.85;3.63;;;2.90;99.90;;;;;;4978716;28;20058;-69
2022/02/23 06:38:29;;;;;;;11.73;3.55;;;2.90;99.90;;;;;;4954330;28;20043;-69
2022/02/23 06:40:56;;;;;;;10.50;3.35;;;2.90;99.90;;;;;;4956533;28;20043;-69
2022/02/23 06:43:24;;;;;;;13.07;4.07;;;2.80;99.90;;;;;;4949549;29;20055;-70
2022/02/23 06:45:51;;;;;;;11.52;3.90;;;2.80;99.90;;;;;;4955927;28;20047;-69
2022/02/23 06:48:19;;;;;;;20.15;6.72;;;2.80;99.90;;;;;;4968155;28;20051;-68
2022/02/23 06:50:46;;;;;;;24.70;5.28;;;2.80;99.90;;;;;;4954959;28;20165;-69
2022/02/23 06:53:13;;;;;;;16.88;7.07;;;2.90;99.90;;;;;;4949520;28;20040;-68
2022/02/23 06:55:41;;;;;;;15.45;4.32;;;2.90;99.90;;;;;;4981174;28;20061;-68
2022/02/23 06:58:08;;;;;;;16.60;3.95;;;2.90;99.90;;;;;;4960480;28;20039;-69
2022/02/23 07:00:36;;;;;;;14.25;5.03;;;2.90;99.90;;;;;;4962363;28;20051;-69
2022/02/23 07:03:03;;;;;;;15.10;3.83;;;2.90;99.90;;;;;;4960956;28;20102;-69
2022/02/23 07:05:30;;;;;;;15.02;3.58;;;2.90;99.90;;;;;;4952891;28;20055;-68
2022/02/23 07:08:02;;;;;;;20.92;5.10;;;3.00;99.90;;;;;;4952797;28;20054;-68
2022/02/23 07:10:32;;;;;;;14.57;4.18;;;3.10;99.90;;;;;;4967391;28;20059;-69
2022/02/23 07:13:00;;;;;;;18.67;4.30;;;3.10;99.90;;;;;;4952929;28;20479;-68
2022/02/23 07:15:27;;;;;;;20.92;5.68;;;3.20;99.90;;;;;;4970203;28;20050;-69
2022/02/23 07:17:55;;;;;;;17.60;5.25;;;3.20;99.90;;;;;;4948559;28;20051;-69
2022/02/23 07:20:22;;;;;;;21.85;4.70;;;3.30;99.90;;;;;;4936942;28;20051;-69
2022/02/23 07:22:49;;;;;;;15.05;4.18;;;3.40;99.90;;;;;;4952393;29;20130;-69
2022/02/23 07:25:16;;;;;;;18.98;5.05;;;3.50;99.90;;;;;;4921631;29;20051;-68
2022/02/23 07:27:45;;;;;;;20.70;4.88;;;3.60;99.90;;;;;;4986618;28;20439;-69
2022/02/23 07:30:17;;;;;;;16.25;5.13;;;3.70;99.90;;;;;;4983735;28;20786;-69
2022/02/23 07:32:48;;;;;;;15.32;4.50;;;3.80;99.90;;;;;;4955573;28;20063;-69
2022/02/23 07:35:15;;;;;;;20.23;4.47;;;3.90;99.90;;;;;;4962760;28;20048;-69
2022/02/23 07:37:43;;;;;;;22.27;6.75;;;3.90;99.90;;;;;;4967335;28;20173;-69
2022/02/23 07:40:14;;;;;;;16.80;5.35;;;4.00;99.90;;;;;;4957013;28;20061;-70
2022/02/23 07:43:03;;;;;;;17.88;4.82;;;4.10;99.90;;;;;;4946175;28;20051;-68
2022/02/23 07:45:37;;;;;;;15.52;4.55;;;4.20;99.90;;;;;;4964077;28;20138;-68
2022/02/23 07:48:04;;;;;;;14.13;4.50;;;4.20;99.90;;;;;;4965574;28;20126;-69
2022/02/23 07:50:32;;;;;;;19.27;4.78;;;4.30;99.90;;;;;;4966133;28;20043;-70
2022/02/23 07:53:02;;;;;;;21.63;4.68;;;4.30;99.90;;;;;;4955287;28;20051;-69
2022/02/23 07:55:29;;;;;;;21.00;4.28;;;4.40;99.90;;;;;;4957605;28;20047;-69
2022/02/23 07:57:58;;;;;;;16.02;4.60;;;4.40;99.90;;;;;;4955200;28;20057;-69
2022/02/23 08:00:27;;;;;;;13.02;3.70;;;4.50;99.90;;;;;;4963865;28;20535;-69
2022/02/23 08:02:57;;;;;;;23.98;4.65;;;4.50;99.90;;;;;;4968884;28;20063;-69
2022/02/23 08:05:28;;;;;;;18.52;4.55;;;4.60;99.90;;;;;;4958345;28;20078;-68
2022/02/23 08:07:55;;;;;;;18.23;3.95;;;4.70;99.90;;;;;;4956883;28;20495;-69
2022/02/23 08:10:23;;;;;;;14.43;3.70;;;4.70;99.90;;;;;;4985553;28;20051;-69
2022/02/23 08:12:55;;;;;;;17.75;6.07;;;4.80;99.90;;;;;;4956269;28;20047;-68
2022/02/23 08:20:54;;;;;;;24.85;6.28;;;5.00;99.90;;;;;;4966977;28;20051;-68
2022/02/23 08:23:21;;;;;;;17.67;5.25;;;5.00;99.90;;;;;;4954917;28;20044;-68
2022/02/23 08:25:50;;;;;;;17.40;4.93;;;5.10;99.90;;;;;;4957242;28;20051;-68
2022/02/23 08:28:19;;;;;;;23.90;5.95;;;5.20;99.90;;;;;;4964241;28;20047;-68
2022/02/23 08:30:49;;;;;;;17.92;5.80;;;5.20;99.90;;;;;;4970052;28;20487;-68
2022/02/23 08:33:16;;;;;;;14.00;4.10;;;5.30;99.90;;;;;;4965152;28;20050;-68
2022/02/23 08:35:44;;;;;;;13.63;4.35;;;5.30;99.90;;;;;;4961562;28;20460;-68
2022/02/23 08:38:12;;;;;;;22.52;5.22;;;5.40;99.90;;;;;;4956369;28;20110;-69
2022/02/23 08:40:43;;;;;;;18.50;5.82;;;5.40;99.90;;;;;;4953534;28;20043;-69
2022/02/23 08:43:11;;;;;;;22.83;6.55;;;5.50;99.90;;;;;;4937044;29;20082;-69
2022/02/23 08:45:38;;;;;;;20.90;4.95;;;5.60;99.90;;;;;;4953806;28;20066;-69
2022/02/23 08:48:08;;;;;;;15.90;6.85;;;5.60;99.90;;;;;;4966873;28;20043;-68
2022/02/23 08:50:35;;;;;;;26.85;7.85;;;5.60;99.90;;;;;;4952742;29;20402;-68
2022/02/23 08:53:02;;;;;;;19.55;6.10;;;5.70;99.90;;;;;;4969893;28;20054;-70
2022/02/23 08:55:29;;;;;;;21.33;5.28;;;5.70;99.90;;;;;;4923087;29;20395;-68
2022/02/23 08:57:58;;;;;;;24.10;7.00;;;5.80;99.90;;;;;;4968105;28;20058;-68
2022/02/23 09:00:26;;;;;;;24.23;6.28;;;5.80;99.90;;;;;;4968760;28;20474;-68
2022/02/23 09:02:56;;;;;;;21.95;5.43;;;5.90;99.90;;;;;;4954540;28;20047;-68
2022/02/23 09:05:23;;;;;;;22.77;7.43;;;6.00;99.90;;;;;;4954409;28;20055;-68
2022/02/23 09:07:50;;;;;;;27.27;6.28;;;6.00;99.90;;;;;;4964356;28;20054;-68
2022/02/23 09:10:17;;;;;;;23.50;6.88;;;6.10;99.90;;;;;;4969537;28;20399;-68
2022/02/23 09:12:44;;;;;;;20.73;6.38;;;6.20;99.90;;;;;;4955251;28;20410;-68
2022/02/23 09:15:12;;;;;;;19.98;7.60;;;6.20;99.90;;;;;;4967045;28;20086;-68
2022/02/23 09:17:41;;;;;;;23.38;8.07;;;6.20;99.90;;;;;;4955098;28;20055;-67
2022/02/23 09:20:08;;;;;;;21.00;6.88;;;6.30;99.90;;;;;;4971794;28;20418;-67
2022/02/23 09:22:35;;;;;;;29.15;7.85;;;6.30;99.90;;;;;;4966517;28;20736;-68
2022/02/23 09:25:05;;;;;;;30.85;6.82;;;6.30;99.90;;;;;;4967261;28;20044;-69
2022/02/23 09:27:34;;;;;;;29.67;7.30;;;6.40;99.90;;;;;;4963691;28;20051;-68
2022/02/23 09:30:03;;;;;;;32.25;8.43;;;6.40;99.90;;;;;;4954845;28;20051;-68
2022/02/23 09:32:30;;;;;;;31.05;7.93;;;6.50;99.90;;;;;;4968843;28;20086;-68
2022/02/23 09:34:57;;;;;;;19.60;7.10;;;6.60;99.90;;;;;;4954346;28;20463;-69
2022/02/23 09:37:24;;;;;;;22.75;6.35;;;6.60;99.90;;;;;;4983712;28;20115;-68
2022/02/23 09:39:51;;;;;;;23.48;6.97;;;6.60;99.90;;;;;;4953886;28;20051;-68
2022/02/23 09:42:18;;;;;;;20.55;6.03;;;6.70;99.90;;;;;;4954404;28;20043;-69
2022/02/23 09:44:45;;;;;;;20.60;6.68;;;6.80;99.90;;;;;;4953920;28;20043;-68
2022/02/23 09:47:33;;;;;;;25.33;5.97;;;6.80;99.90;;;;;;4951786;28;20043;-68
2022/02/23 09:50:01;;;;;;;25.98;6.47;;;6.90;99.90;;;;;;4983541;28;20264;-69
2022/02/23 09:52:28;;;;;;;27.20;8.60;;;6.90;99.90;;;;;;4984371;28;20047;-68
2022/02/23 09:54:59;;;;;;;21.33;7.32;;;7.00;99.90;;;;;;4936603;28;20054;-69
2022/02/23 09:57:28;;;;;;;31.65;8.75;;;7.10;99.90;;;;;;4940775;28;20043;-69
2022/02/23 09:59:56;;;;;;;36.58;7.70;;;7.10;99.90;;;;;;4931749;29;20166;-68
2022/02/23 10:02:26;;;;;;;19.25;7.32;;;7.20;99.90;;;;;;4933970;29;20063;-69
2022/02/23 10:04:52;;;;;;;25.55;7.63;;;7.20;99.90;;;;;;4967467;28;20047;-69
2022/02/23 10:07:30;;;;;;;26.00;6.90;;;7.20;99.90;;;;;;4955346;28;20478;-68
2022/02/23 10:10:00;;;;;;;39.50;25.42;;;7.30;99.90;;;;;;4983153;28;20480;-69
2022/02/23 10:12:29;;;;;;;28.67;9.48;;;7.50;99.90;;;;;;4963532;28;20051;-69
2022/02/23 10:15:12;;;;;;;26.83;9.95;;;7.50;99.90;;;;;;4962876;28;20454;-69
2022/02/23 10:17:46;;;;;;;27.55;6.90;;;7.70;99.90;;;;;;4952021;28;20058;-69
2022/02/23 10:20:34;;;;;;;23.52;8.02;;;7.70;99.90;;;;;;4968621;28;20055;-69
2022/02/23 10:23:07;;;;;;;;;;;7.70;99.90;;;;;;4954159;28;20043;-69
2022/02/23 10:25:42;;;;;;;37.50;8.10;;;7.80;99.90;;;;;;4949216;28;19922;-70
2022/02/23 10:28:15;;;;;;;20.85;6.28;;;7.80;99.90;;;;;;4955849;28;20051;-69
2022/02/23 10:30:55;;;;;;;23.52;7.80;;;7.90;99.90;;;;;;4947202;28;20059;-70
2022/02/23 10:33:23;;;;;;;22.10;6.88;;;8.00;99.90;;;;;;4969692;28;20059;-69
2022/02/23 10:36:18;;;;;;;21.45;6.32;;;8.00;99.90;;;;;;4966367;28;20047;-68
2022/02/23 10:38:57;;;;;;;31.50;7.22;;;8.10;99.90;;;;;;4937720;29;20044;-70
2022/02/23 10:41:31;;;;;;;27.75;8.88;;;8.20;99.90;;;;;;4953418;28;20043;-70
2022/02/23 10:44:05;;;;;;;23.20;8.30;;;8.30;99.90;;;;;;4951814;29;20106;-69
2022/02/23 10:46:32;;;;;;;30.67;7.05;;;8.30;99.90;;;;;;4961127;28;20505;-71
2022/02/23 10:49:02;;;;;;;43.65;19.95;;;8.30;99.90;;;;;;4946990;28;20039;-74
2022/02/23 10:51:32;;;;;;;20.73;8.38;;;8.40;99.90;;;;;;4955805;28;20098;-67
2022/02/23 10:54:05;;;;;;;26.67;8.70;;;8.50;99.90;;;;;;4980541;28;20079;-67
2022/02/23 10:56:34;;;;;;;25.52;6.30;;;8.50;99.90;;;;;;4951650;28;20051;-67
2022/02/23 10:59:12;;;;;;;17.10;5.65;;;8.60;99.90;;;;;;4981544;28;20055;-69
2022/02/23 11:01:40;;;;;;;22.38;6.32;;;8.70;99.90;;;;;;4937362;29;20047;-68
2022/02/23 11:04:07;;;;;;;17.10;5.60;;;8.90;99.90;;;;;;4988947;28;20487;-68
2022/02/23 11:06:34;;;;;;;19.75;5.00;;;8.90;99.90;;;;;;4957606;29;20087;-67
2022/02/23 11:09:04;;;;;;;16.30;5.40;;;9.00;99.90;;;;;;4956184;28;20055;-70
2022/02/23 11:11:31;;;;;;;17.27;6.03;;;9.00;99.90;;;;;;4949235;29;20043;-68
2022/02/23 11:14:00;;;;;;;10.52;3.45;;;9.00;99.90;;;;;;4986984;28;20047;-68
2022/02/23 11:16:28;;;;;;;12.32;3.85;;;9.10;99.90;;;;;;4988138;28;20393;-67
2022/02/23 11:19:02;;;;;;;12.90;4.32;;;9.10;99.90;;;;;;4988305;28;20511;-67
2022/02/23 11:21:32;;;;;;;12.82;3.80;;;9.20;99.90;;;;;;4974043;28;20058;-67
2022/02/23 11:24:00;;;;;;;14.73;4.18;;;9.20;97.70;;;;;;4959054;28;20495;-67
2022/02/23 11:26:32;;;;;;;12.25;3.03;;;9.30;99.20;;;;;;4962805;28;20050;-67
2022/02/23 11:29:23;;;;;;;17.38;4.00;;;9.30;97.50;;;;;;4940714;29;20043;-66
2022/02/23 11:31:51;;;;;;;8.15;2.97;;;9.30;97.30;;;;;;4964921;28;20051;-66
2022/02/23 11:34:21;;;;;;;12.82;3.92;;;9.30;96.60;;;;;;4971694;28;20467;-67
2022/02/23 11:36:49;;;;;;;12.40;4.35;;;9.40;97.90;;;;;;4957182;28;20050;-67
2022/02/23 11:39:18;;;;;;;16.23;4.88;;;9.40;97.80;;;;;;4945449;29;20051;-67
2022/02/23 11:41:53;;;;;;;14.43;5.50;;;9.50;97.40;;;;;;4966302;28;20410;-67
2022/02/23 11:44:23;;;;;;;16.08;4.75;;;9.60;97.50;;;;;;4981544;28;20126;-67
2022/02/23 11:46:56;;;;;;;13.70;4.72;;;9.60;97.70;;;;;;4961864;28;20051;-67
2022/02/23 11:49:27;;;;;;;14.45;3.97;;;9.70;97.80;;;;;;4975500;28;20050;-68
2022/02/23 11:52:08;;;;;;;23.25;5.25;;;9.80;96.90;;;;;;4961014;28;20051;-67
2022/02/23 11:55:03;;;;;;;14.70;4.88;;;9.90;95.70;;;;;;4958233;28;20135;-67
2022/02/23 11:57:40;;;;;;;10.25;3.38;;;10.00;95.60;;;;;;4937547;29;20408;-67
2022/02/23 12:00:11;;;;;;;17.58;4.55;;;10.20;95.30;;;;;;4955042;28;20043;-67
2022/02/23 12:02:39;;;;;;;13.32;3.30;;;10.30;94.80;;;;;;4968171;28;20054;-67
2022/02/23 12:05:09;;;;;;;14.27;3.63;;;10.30;94.20;;;;;;4955331;28;20047;-67
2022/02/23 12:07:46;;;;;;;15.02;3.83;;;10.40;93.00;;;;;;4946216;28;20047;-67
2022/02/23 12:10:13;;;;;;;11.25;3.17;;;10.50;93.10;;;;;;4943749;29;20055;-67
2022/02/23 12:12:45;;;;;;;13.02;4.82;;;10.50;92.10;;;;;;4959587;28;20051;-67
2022/02/23 12:15:25;;;;;;;13.65;3.95;;;10.50;91.90;;;;;;4962411;28;20063;-67
2022/02/23 12:18:16;;;;;;;10.88;3.47;;;10.50;92.00;;;;;;4956831;28;20429;-67
2022/02/23 12:20:43;;;;;;;12.60;3.67;;;10.60;91.60;;;;;;4966033;28;20102;-67
2022/02/23 12:23:18;;;;;;;23.05;4.63;;;10.70;91.80;;;;;;4968725;28;20051;-67
2022/02/23 12:25:58;;;;;;;13.80;3.53;;;10.70;91.40;;;;;;4965129;28;20053;-67
2022/02/23 12:28:35;;;;;;;20.10;5.25;;;10.80;91.10;;;;;;4969129;28;20495;-67
2022/02/23 12:31:14;;;;;;;13.98;4.13;;;10.70;90.90;;;;;;4921236;28;20475;-67
2022/02/23 12:33:42;;;;;;;11.10;4.00;;;10.70;91.10;;;;;;4958139;28;20502;-69
2022/02/23 12:36:36;;;;;;;11.18;3.67;;;10.70;90.60;;;;;;4936554;29;20063;-67
2022/02/23 12:39:05;;;;;;;14.00;4.45;;;10.70;90.40;;;;;;4960485;28;20055;-67
2022/02/23 12:41:33;;;;;;;11.93;4.88;;;10.70;90.20;;;;;;4973723;28;20051;-67
2022/02/23 12:44:11;;;;;;;11.10;4.45;;;10.60;90.10;;;;;;4935561;29;20510;-67
2022/02/23 12:46:42;;;;;;;15.57;4.50;;;10.60;89.50;;;;;;4955728;28;20380;-67
2022/02/23 12:49:09;;;;;;;11.70;3.50;;;10.60;89.90;;;;;;4967859;28;20391;-67
2022/02/23 12:51:37;;;;;;;14.90;3.65;;;10.60;89.40;;;;;;4960350;28;20074;-67
2022/02/23 12:54:06;;;;;;;14.05;3.78;;;10.60;89.70;;;;;;4972008;28;20043;-67
2022/02/23 12:56:34;;;;;;;12.03;3.73;;;10.70;89.60;;;;;;4953617;28;20051;-67
2022/02/23 12:59:04;;;;;;;13.52;4.63;;;10.90;89.30;;;;;;4957516;28;20554;-67
2022/02/23 13:01:31;;;;;;;;;;;11.00;88.60;;;;;;4963944;28;20046;-67